Nearby METAR Reports


KANE - Minneapls/Blaine, Minnesota, USA
Distance from station: ESE 8mi, 13km
Updated: 11/28/2020 4:45pm
Clear
Clear
 Wind from SSW
Wind: SSW 5 mph , 7 km/h
Temperature: 46°F , 8°C
Wind Chill: 44°F , 7°C
Dew Point: 30°F , -1°C
Humidity: 53%
Barometer: 29.85 inHg , 1010.8 hPa
Clouds: Clear
Visibility: 10 miles , 16 km
2020/11/28 22:45 KANE 282245Z 20004KT 10SM CLR 08/M01 A2985
KMIC - Mnpls/Crystal, Minnesota, USA
Distance from station: S 8mi, 14km
Updated: 11/28/2020 3:53pm
Clear
Clear
 Wind from SW
Wind: SW 7 mph , 11 km/h
Temperature: 48°F , 9°C
Wind Chill: 45°F , 7°C
Dew Point: 28°F , -2°C
Humidity: 46%
Barometer: 29.85 inHg , 1010.8 hPa
Clouds: Clear
Visibility: 10 miles , 16 km
2020/11/28 21:53 KMIC 282153Z 23006KT 10SM CLR 09/M02 A2985 RMK AO2 SLP115 T00941017
 
KMSP - Minneapolis, Minnesota, USA
Distance from station: SSE 22mi, 35km
Updated: 11/28/2020 3:53pm
Few Clouds
Few Clouds
 Wind from WSW
Wind: WSW 7 mph , 11 km/h
Temperature: 50°F , 10°C
Wind Chill: 47°F , 8°C
Dew Point: 28°F , -2°C
Humidity: 43%
Barometer: 29.87 inHg , 1011.5 hPa
Clouds: Few Clouds
Visibility: 10 miles , 16 km
Cloud details: Few Clouds 25000 ft
2020/11/28 21:53 KMSP 282153Z 24006KT 10SM FEW250 10/M02 A2987 RMK AO2 SLP120 T01001017
KSTP - St. Paul, Minnesota, USA
Distance from station: SE 23mi, 38km
Updated: 11/28/2020 3:53pm
Clear
Clear
 Wind from SW
Wind: SW 5 mph , 7 km/h
Temperature: 50°F , 10°C
Wind Chill: 48°F , 9°C
Dew Point: 28°F , -2°C
Humidity: 43%
Barometer: 29.88 inHg , 1011.9 hPa
Clouds: Clear
Visibility: 10 miles , 16 km
2020/11/28 21:53 KSTP 282153Z AUTO 23004KT 10SM CLR 10/M02 A2988 RMK AO2 SLP120 T01001022
 
KCFE - Buffalo Muni, Minnesota, USA
Distance from station: W 24mi, 38km
Updated: 11/28/2020 4:35pm
Clear
Clear
 
Temperature: 43°F , 6°C
Dew Point: 32°F , 0°C
Humidity: 66%
Barometer: 29.86 inHg , 1011.2 hPa
Clouds: Clear
Visibility: 10 miles , 16 km
2020/11/28 22:35 KCFE 282235Z 10SM CLR 06/00 A2986 RMK AO2 T00581005
KFCM - Mnpls/Flying Cld, Minnesota, USA
Distance from station: S 25mi, 40km
Updated: 11/28/2020 3:53pm
Clear
Clear
 Wind from SW
Wind: SW 7 mph , 11 km/h
Temperature: 50°F , 10°C
Wind Chill: 47°F , 8°C
Dew Point: 28°F , -2°C
Humidity: 43%
Barometer: 29.86 inHg , 1011.2 hPa
Clouds: Clear
Visibility: 10 miles , 16 km
2020/11/28 21:53 KFCM 282153Z 23006KT 10SM CLR 10/M02 A2986 RMK AO2 SLP118 T01001017 $
 
KCBG - Cambridge Muni, Minnesota, USA
Distance from station: N 27mi, 43km
Updated: 11/28/2020 3:55pm
Clear
Clear
 Wind from SSW
Wind: SSW 6 mph , 9 km/h
Temperature: 48°F , 9°C
Wind Chill: 45°F , 7°C
Dew Point: 30°F , -1°C
Humidity: 50%
Barometer: 29.84 inHg , 1010.5 hPa
Clouds: Clear
Visibility: 10 miles , 16 km
2020/11/28 21:55 KCBG 282155Z AUTO 21005KT 10SM CLR 09/M01 A2984 RMK AO2
KPNM - Princeton Muni, Minnesota, USA
Distance from station: NNW 27mi, 44km
Updated: 11/28/2020 4:35pm
Clear
Clear
 Wind from S
Wind: S 6 mph , 9 km/h
Temperature: 43°F , 6°C
Wind Chill: 39°F , 4°C
Dew Point: 30°F , -1°C
Humidity: 61%
Barometer: 29.84 inHg , 1010.5 hPa
Clouds: Clear
Visibility: 10 miles , 16 km
2020/11/28 22:35 KPNM 282235Z AUTO 18005KT 10SM CLR 06/M01 A2984 RMK AO2
 
K21D - Lake Elmo, Minnesota, USA
Distance from station: ESE 28mi, 46km
Updated: 11/28/2020 4:26pm
Clear
Clear
 Wind from SW
Wind: SW 6 mph , 9 km/h
Temperature: 45°F , 7°C
Wind Chill: 42°F , 6°C
Dew Point: 28°F , -2°C
Humidity: 53%
Barometer: 29.88 inHg , 1011.9 hPa
Clouds: Clear
Visibility: 10 miles , 16 km
2020/11/28 22:26 K21D 282226Z AUTO 23005KT 10SM CLR 07/M02 A2988 RMK AO2
KSGS - South St Paul, Minnesota, USA
Distance from station: SE 28mi, 46km
Updated: 11/28/2020 4:35pm
Clear
Clear
 Wind from S
Wind: S 3 mph , 6 km/h
Temperature: 48°F , 9°C
Dew Point: 28°F , -2°C
Humidity: 46%
Barometer: 29.87 inHg , 1011.5 hPa
Clouds: Clear
Visibility: 10 miles , 16 km
2020/11/28 22:35 KSGS 282235Z AUTO 19003KT 10SM CLR 09/M02 A2987 RMK AO2 T00921025 PWINO
 
KMGG - Maple Lake, Minnesota, USA
Distance from station: W 30mi, 48km
Updated: 11/28/2020 4:35pm

 Wind from calm
Wind: Calm
Temperature: 43°F , 6°C
Dew Point: 34°F , 1°C
Humidity: 71%
Barometer: 29.86 inHg , 1011.2 hPa
Visibility: 10 miles , 16 km
2020/11/28 22:35 KMGG 282235Z AUTO 00000KT 10SM 06/01 A2986 RMK AO2 T00640010
KOEO - Osceola, Wisconsin, USA
Distance from station: ENE 34mi, 55km
Updated: 11/28/2020 4:35pm
Clear
Clear
 Wind from SSW
Wind: SSW 5 mph , 7 km/h
Temperature: 45°F , 7°C
Wind Chill: 42°F , 6°C
Dew Point: 27°F , -3°C
Humidity: 49%
Barometer: 29.88 inHg , 1011.9 hPa
Clouds: Clear
Visibility: 10 miles , 16 km
2020/11/28 22:35 KOEO 282235Z AUTO 21004KT 10SM CLR 07/M03 A2988 RMK AO2 T00701033
 
KLVN - Mnpls/Airlake, Minnesota, USA
Distance from station: S 39mi, 63km
Updated: 11/28/2020 4:35pm

 Wind from calm
Wind: Calm
Temperature: 46°F , 8°C
Dew Point: 28°F , -2°C
Humidity: 50%
Barometer: 29.88 inHg , 1011.9 hPa
Visibility: 10 miles , 16 km
2020/11/28 22:35 KLVN 282235Z AUTO 00000KT 10SM 08/M02 A2988 RMK AO2
KRNH - New Richmond Mun, Wisconsin, USA
Distance from station: E 41mi, 66km
Updated: 11/28/2020 4:35pm
Clear
Clear
 Wind from SW
Wind: SW 6 mph , 9 km/h
Temperature: 43°F , 6°C
Wind Chill: 39°F , 4°C
Dew Point: 27°F , -3°C
Humidity: 53%
Barometer: 29.86 inHg , 1011.2 hPa
Clouds: Clear
Visibility: 10 miles , 16 km
2020/11/28 22:35 KRNH 282235Z AUTO 23005KT 10SM CLR 06/M03 A2986 RMK AO2 T00571032
 
KROS - Rush City, Minnesota, USA
Distance from station: NNE 41mi, 66km
Updated: 11/28/2020 4:35pm
Partly cloudy
Partly cloudy
 Wind from SW
Wind: SW 8 mph , 13 km/h
Temperature: 45°F , 7°C
Wind Chill: 41°F , 5°C
Dew Point: 28°F , -2°C
Humidity: 53%
Barometer: 29.83 inHg , 1010.2 hPa
Clouds: Partly cloudy
Visibility: 10 miles , 16 km
Cloud details: Partly cloudy 10000 ft
2020/11/28 22:35 KROS 282235Z AUTO 22007KT 10SM SCT100 07/M02 A2983 RMK AO2 T00651024
KSTC - St. Cloud, Minnesota, USA
Distance from station: NW 41mi, 67km
Updated: 11/28/2020 3:53pm
Clear
Clear
 Wind from SSW
Wind: SSW 8 mph , 13 km/h
Temperature: 45°F , 7°C
Wind Chill: 41°F , 5°C
Dew Point: 30°F , -1°C
Humidity: 57%
Barometer: 29.83 inHg , 1010.2 hPa
Clouds: Clear
Visibility: 10 miles , 16 km
2020/11/28 21:53 KSTC 282153Z 20007KT 10SM CLR 07/M01 A2983 RMK AO2 SLP120 T00671011 $
 
KGYL - Glencoe, Minnesota, USA
Distance from station: SW 46mi, 74km
Updated: 11/28/2020 4:35pm
Clear
Clear
 Wind from calm
Wind: Calm
Temperature: 46°F , 8°C
Dew Point: 34°F , 1°C
Humidity: 62%
Barometer: 29.85 inHg , 1010.8 hPa
Clouds: Clear
Visibility: 10 miles , 16 km
2020/11/28 22:35 KGYL 282235Z AUTO 00000KT 10SM CLR 08/01 A2985 RMK AO2 T00830010
KJMR - Mora, Minnesota, USA
Distance from station: N 48mi, 78km
Updated: 11/28/2020 4:35pm
Clear
Clear
 Wind from SW
Wind: SW 5 mph , 7 km/h
Temperature: 43°F , 6°C
Wind Chill: 40°F , 4°C
Dew Point: 30°F , -1°C
Humidity: 61%
Barometer: 29.84 inHg , 1010.5 hPa
Clouds: Clear
Visibility: 10 miles , 16 km
2020/11/28 22:35 KJMR 282235Z AUTO 23004KT 10SM CLR 06/M01 A2984 RMK AO2